Terminal Aerodrome Forecast
Issued by NWS Jacksonville, FL

Home | Current Version | Previous Version | Text Only | Print | Product List | Glossary On
Versions: 1 2 3 4 5 6 7 8 9 10 11 12 13 14 15 16 17 18 19 20
219
FTUS42 KJAX 061609 AAD
TAFJAX
TAF AMD
KJAX 061609Z 0616/0712 23010G15KT P6SM VCSH OVC015
      TEMPO 0616/0617 5SM SHRA
     FM061800 23015G25KT P6SM SCT015 BKN035
     FM062300 24007KT P6SM SKC=

USA.gov is the U.S. government's official web portal to all federal, state and local government web resources and services.